Impacts TAF Board
For situational awareness. Not to be used for flight planning purposes.
IDs:

KAUS - Austin/Bergstrom Int, TX, US

Issued at 0532 UTC 19 Aug 2019
Updated at 0615 UTC 19 Aug 2019
Potential Impact None Slight Moderate High
Time0553Z 19/07Z 19/08Z 19/09Z 19/10Z 19/11Z 19/12Z 19/13Z 19/14Z 19/15Z 19/16Z 19/17Z 19/18Z 19/19Z>>
Type OBS PRVL PRVL PRVL PRVL PRVL PRVL PRVL PRVL PRVL PRVL PRVL PRVL PRVL
VIS 10 >6 >6 >6 >6 >6 >6 >6 >6 >6 >6 >6 >6 >6
CIG -- -- 15 15 15 15 15 15 15 -- -- -- -- --
Cover SCT FEW BKN BKN BKN BKN BKN BKN BKN SCT SCT SCT SCT SCT
FltCat VFR VFR MVFR MVFR MVFR MVFR MVFR MVFR MVFR VFR VFR VFR VFR VFR
WX -- -- -- -- -- -- -- -- -- -- -- -- -- --
WDir 180 170 180 180 180 180 180 180 180 190 190 190 190 190
WSpd 9 11 6 6 6 6 6 6 6 14 14 14 14 14
WGst -- -- -- -- -- -- -- -- -- -- -- -- -- --
Raw TAF
KAUS 190532Z 1906/2012 17011KT P6SM FEW250
  FM190800 18006KT P6SM FEW008 BKN015
  FM191500 19014KT P6SM SCT025
  FM200000 15010KT P6SM FEW100


Raw METAR
KAUS 190553Z 18009KT 10SM SCT018 28/24 A2994 RMK AO2 SLP125 T02780239 10378 20278 403890261 51021 $
KAUS 190453Z 17010KT 10SM FEW200 29/23 A2994 RMK AO2 SLP124 T02890228 $
KAUS 190353Z 18012G23KT 10SM FEW200 30/22 A2990 RMK AO2 SLP112 T03000217 $

METAR Board
Radar Display
Forecast Discussion
For situational awareness. Not to be used for flight planning purposes.